Tiempo atmosférico en la estación meteorológica de Arenys De Mar, Barcelona (50 m.)



Fecha
DESCASC
Temp. máxima en grados centígrados (hora)
DESCASC
Temp. mínima en grados centígrados (hora)
DESCASC
Temp. media en grados centígrados
DESCASC
Racha de viento máxima en m/sg (hora)
DESCASC
Velocidad máxima media en intervalos de 10 minutos(hora)
DESCASC
Precipitaciones diarias en mm
DESCASC
Precipitaciones de 00:00 a 06:00 en mm
DESCASC
Precipitaciones de 06:00 a 12:00 en mm
DESCASC
Precipitaciones de 12:00 a 18:00 en mm
DESCASC
Precipitaciones de 18:00 a 24:00 en mm
DESCASC
19-04-2018 24.4 (12:20) 13.6 (05:40) 19 6.67 (12:10) 2.5 (06:50) 0 0 0 0 0
18-04-2018 24.7 (15:20) 13.7 (06:20) 19.2 4.72 (23:00) 2.78 (22:40) 0 0 0 0 0
17-04-2018 24.7 (15:00) 11 (04:30) 17.9 5.28 (15:10) 2.5 (14:20) 0 0 0 0 0
16-04-2018 19.8 (11:40) 12.1 (23:59) 15.9 4.44 (04:20) 2.5 (04:20) 0 0 0 0 0
15-04-2018 21.8 (13:30) 11.8 (00:00) 16.8 6.39 (14:50) 2.78 (14:50) 0 0 0 0 0
14-04-2018 15.9 (17:40) 12.2 (00:00) 14 8.89 (16:30) 4.72 (15:50) 9.2 3.4 1.2 4.6 0
13-04-2018 16.5 (10:40) 9.8 (00:00) 13.2 5 (13:50) 2.5 (14:10) 3.8 0 0 3.7 0.1
12-04-2018 17.7 (14:00) 7.1 (00:00) 12.4 6.67 (15:40) 3.61 (04:30) 1 1 0 0 0
11-04-2018 16.4 (15:00) 9.2 (00:00) 12.8 11.11 (07:00) 3.89 (07:20) 35.8 18.9 13 0 3.9
10-04-2018 17.7 (12:50) 6.6 (00:00) 12.2 9.17 (23:40) 4.17 (13:30) 6.3 0 0 5 1.3
09-04-2018 20 (15:30) 10 (00:00) 15 8.89 (17:40) 3.89 (17:50) 2.8 2.1 0 0 0.7
08-04-2018 18.3 (14:30) 11.6 (00:00) 14.9 6.39 (01:50) 2.22 (01:40) 5.8 0 4.2 0.2 1.4
07-04-2018 20.4 (15:40) 12.5 (00:00) 16.4 10.56 (09:30) 5 (09:00) 0 0 0 0 0
06-04-2018 20.8 (15:00) 9 (00:00) 14.9 4.72 (12:50) 1.94 (22:30) 0 0 0 0 0
05-04-2018 19.9 (12:20) 11 (00:00) 15.4 6.94 (14:30) 3.33 (17:30) 0 0 0 0 0
04-04-2018 24.8 (15:20) 12.3 (00:00) 18.5 11.94 (14:40) 4.17 (13:00) 0 0 0 0 0
03-04-2018 19.5 (13:20) 10.2 (00:00) 14.8 12.22 (17:30) 4.72 (17:30) 0 0 0 0 0
02-04-2018 19.9 (14:20) 7.5 (00:00) 13.7 5.56 (11:40) 2.78 (10:40) 0 0 0 0 0
01-04-2018 17.1 (15:20) 5.5 (00:00) 11.3 5.83 (03:50) 3.33 (04:00) 0 0 0 0 0
31-03-2018 20.9 (16:30) 7.4 (00:00) 14.1 14.17 (11:30) 5.28 (11:20) 0 0 0 0 0
30-03-2018 22.2 (15:10) 9.4 (00:00) 15.8 13.06 (18:20) 5 (18:10) 0 0 0 0 0
29-03-2018 18.4 (14:10) 9.6 (00:00) 14 5 (13:20) 2.5 (03:50) 0 0 0 0 0
28-03-2018 19.8 (15:20) 9.8 (00:00) 14.8 5 (03:30) 2.78 (03:30) 0 0 0 0 0
27-03-2018 16.6 (13:20) 7.8 (00:00) 12.2 8.33 (15:50) 3.89 (15:20) 0 0 0 0 0
26-03-2018 18.8 (14:30) 5.9 (00:00) 12.3 5.28 (00:20) 2.5 (00:20) 0 0 0 0 0
25-03-2018 13.9 (17:50) 7.5 (00:00) 10.7 12.78 (00:30) 5.56 (00:30) 0.1 0.1 0 0 0
24-03-2018 11.7 (08:30) 7.6 (00:00) 9.6 20.28 (20:00) 8.33 (13:10) 28.5 1.2 12.5 7.1 7.7
23-03-2018 16.9 (13:00) 6.4 (00:00) 11.6 5.83 (14:20) 2.22 (00:10) 0 0 0 0 0

Gráficas

Temp. máximas Temp. mínimas Temp. medias Precipitaciones Rachas de viento máximas Velocidades máximas media en intervalos de 10 minutos

Datos horarios

Fecha y hora oficial Temperatura (ºC) Velocidad del viento (km/h) Dirección del viento Racha (km/h) Dirección de racha Precipitación (mm) Presión (hPa) Tendencia (hPa) Humedad (%)
2018-04-21 23:00:00 15.2 4 Norte 8 Nordeste 0 -- -- 67
2018-04-21 22:00:00 15.7 0 Calma 5 Sudoeste 0 -- -- 69
2018-04-21 21:00:00 17.1 2 Norte 9 Sur 0 -- -- 65
2018-04-21 20:00:00 19.2 3 Sur 19 Sudoeste 0 -- -- 53
2018-04-21 19:00:00 21.6 9 Sudoeste 23 Sudoeste 0 -- -- 43
2018-04-21 18:00:00 22.8 10 Sudoeste 23 Sudoeste 0 -- -- 41
2018-04-21 17:00:00 23.5 8 Sudoeste 22 Sudoeste 0 -- -- 42
2018-04-21 16:00:00 23.3 9 Sudoeste 21 Sur 0 -- -- 43
2018-04-21 15:00:00 24.1 6 Sudoeste 20 Sur 0 -- -- 43
2018-04-21 14:00:00 22.6 5 Este 15 Nordeste 0 -- -- 50
2018-04-21 13:00:00 21.7 4 Nordeste 12 Nordeste 0 -- -- 49
2018-04-21 12:00:00 20.9 4 Nordeste 11 Nordeste 0 -- -- 49
2018-04-21 11:00:00 21.8 2 Este 10 Nordeste 0 -- -- 46
2018-04-21 10:00:00 21.9 2 Sur 7 Sur 0 -- -- 49
2018-04-21 09:00:00 17.4 0 Calma 9 Norte 0 -- -- 68
2018-04-21 08:00:00 13.4 0 Calma 6 Norte 0 -- -- 85
2018-04-21 07:00:00 12.6 0 Calma 5 Norte 0 -- -- 86
2018-04-21 06:00:00 14.3 0 Calma 16 Norte 0 -- -- 73
2018-04-21 05:00:00 13.4 3 Noroeste 9 Norte 0 -- -- 83
2018-04-21 04:00:00 13 4 Norte 8 Norte 0 -- -- 85
2018-04-21 03:00:00 13.8 0 Calma 12 Norte 0 -- -- 78
2018-04-21 02:00:00 14.1 6 Norte 9 Norte 0 -- -- 77
2018-04-21 01:00:00 14 3 Norte 6 Norte 0 -- -- 77
2018-04-21 00:00:00 14.6 3 Norte 8 Norte 0 -- -- 76
2018-04-20 23:00:00 14.8 0 Calma 7 Norte 0 -- -- 77
2018-04-20 22:00:00 15.4 0 Calma 5 Oeste 0 -- -- 79
2018-04-20 21:00:00 15.8 0 Calma 4 Este 0 -- -- 76
2018-04-20 20:00:00 17.6 2 Sudeste 8 Sur 0 -- -- 67
2018-04-20 19:00:00 19 3 Sudeste 12 Este 0 -- -- 54
2018-04-20 18:00:00 20.1 3 Este 14 Sur 0 -- -- 51
2018-04-20 17:00:00 21.2 4 Sudeste 14 Este 0 -- -- 49
2018-04-20 16:00:00 20.4 4 Este 14 Sudoeste 0 -- -- 47
2018-04-20 15:00:00 22.4 3 Sudeste 12 Nordeste 0 -- -- 45
2018-04-20 14:00:00 21.7 3 Sudeste 14 Nordeste 0 -- -- 47
2018-04-20 13:00:00 21.1 4 Sudeste 12 Sur 0 -- -- 46
2018-04-20 12:00:00 21.4 3 Este 11 Sur 0 -- -- 44
2018-04-20 11:00:00 21.7 2 Este 8 Sur 0 -- -- 45
2018-04-20 10:00:00 20.5 0 Calma 7 Nordeste 0 -- -- 51
2018-04-20 09:00:00 17.9 0 Calma 10 Noroeste 0 -- -- 66
2018-04-20 08:00:00 14.6 5 Norte 16 Norte 0 -- -- 76
2018-04-20 07:00:00 13.7 6 Norte 11 Norte 0 -- -- 78
2018-04-20 06:00:00 13.2 5 Norte 9 Norte 0 -- -- 80
2018-04-20 05:00:00 13.8 3 Noroeste 9 Norte 0 -- -- 75
2018-04-20 04:00:00 14.4 5 Norte 12 Norte 0 -- -- 73
2018-04-20 03:00:00 14.1 3 Norte 8 Norte 0 -- -- 73
2018-04-20 02:00:00 14.8 4 Norte 11 Norte 0 -- -- 71
2018-04-20 01:00:00 14.6 5 Norte 11 Norte 0 -- -- 72
2018-04-20 00:00:00 15.1 5 Norte 12 Norte 0 -- -- 72
2018-04-19 23:00:00 15.2 5 Norte 10 Norte 0 -- -- 73
2018-04-19 22:00:00 15.6 3 Norte 6 Norte 0 -- -- 71
2018-04-19 21:00:00 16.5 2 Norte 6 Sur 0 -- -- 68
2018-04-19 20:00:00 18.1 0 Calma 9 Nordeste 0 -- -- 58
2018-04-19 19:00:00 20.3 0 Calma 12 Nordeste 0 -- -- 46
2018-04-19 18:00:00 21.8 2 Este 14 Nordeste 0 -- -- 43
2018-04-19 17:00:00 22.2 3 Este 19 Sudoeste 0 -- -- 44
2018-04-19 16:00:00 22.3 3 Este 18 Sudeste 0 -- -- 42
2018-04-19 15:00:00 21.8 5 Este 21 Sudeste 0 -- -- 42
2018-04-19 14:00:00 21.5 3 Este 22 Norte 0 -- -- 46
2018-04-19 13:00:00 23.2 4 Este 24 Nordeste 0 -- -- 39
2018-04-19 12:00:00 22.8 4 Nordeste 19 Nordeste 0 -- -- 37
2018-04-19 11:00:00 23.7 3 Este 18 Norte 0.7 -- -- 38
2018-04-19 10:00:00 21.2 6 Norte 15 Norte 1.1 -- -- 44
2018-04-19 09:00:00 19.1 8 Norte 18 Norte 0 -- -- 51
2018-04-19 08:00:00 15.5 7 Norte 14 Norte 0 -- -- 64
2018-04-19 07:00:00 14.9 8 Norte 14 Nordeste 0 -- -- 67
2018-04-19 06:00:00 14.1 2 Norte 7 Norte 0 -- -- 72
2018-04-19 05:00:00 14.2 3 Norte 8 Norte 0 -- -- 70
2018-04-19 04:00:00 14.4 3 Norte 10 Norte 0 -- -- 66
2018-04-19 03:00:00 15.4 3 Norte 9 Nordeste 0 -- -- 59
2018-04-19 02:00:00 17.4 2 Norte 14 Norte 0 -- -- 51
2018-04-19 01:00:00 17.5 2 Este 15 Sudeste 0 -- -- 51
2018-04-19 00:00:00 18 4 Norte 12 Norte 0 -- -- 47
2018-04-18 23:00:00 19.4 10 Norte 17 Norte 0 -- -- 45
2018-04-18 22:00:00 18.4 9 Norte 15 Norte 0 -- -- 49
2018-04-18 21:00:00 17.5 3 Norte 8 Noroeste 0 -- -- 61
2018-04-18 20:00:00 18.7 0 Calma 9 Sur 0 -- -- 51
2018-04-18 19:00:00 22.1 3 Sur 13 Nordeste 0 -- -- 40
2018-04-18 18:00:00 22.2 2 Este 17 Norte 0 -- -- 39
2018-04-18 17:00:00 22.5 3 Este 16 Este 0 -- -- 40
2018-04-18 16:00:00 22.4 3 Este 14 Nordeste 0 -- -- 37
2018-04-18 15:00:00 24.1 3 Este 14 Nordeste 0 -- -- 36
2018-04-18 14:00:00 23.2 3 Sudeste 11 Sudeste 0 -- -- 37
2018-04-18 13:00:00 23.8 4 Sur 14 Nordeste 0 -- -- 38
2018-04-18 12:00:00 23.6 2 Sudeste 10 Sur 0 -- -- 37
2018-04-18 11:00:00 22 6 Nordeste 11 Nordeste 0 -- -- 41
2018-04-18 10:00:00 21.8 2 Este 7 Nordeste 0 -- -- 46
2018-04-18 09:00:00 18.1 2 Nordeste 7 Norte 0 -- -- 61
2018-04-18 08:00:00 15.5 4 Norte 9 Norte 0 -- -- 64
2018-04-18 07:00:00 14.1 4 Norte 9 Norte 0 -- -- 71
2018-04-18 06:00:00 14.3 4 Norte 12 Noroeste 0 -- -- 70
2018-04-18 05:00:00 14.2 4 Noroeste 11 Norte 0 -- -- 71
2018-04-18 04:00:00 14.7 4 Norte 9 Norte 0 -- -- 73
2018-04-18 03:00:00 15.2 0 Calma 13 Norte 0 -- -- 68
2018-04-18 02:00:00 17.4 8 Norte 14 Noroeste 0 -- -- 57
2018-04-18 01:00:00 16.6 7 Norte 15 Norte 0 -- -- 56
2018-04-18 00:00:00 17.4 6 Norte 14 Norte 0 -- -- 55
2018-04-17 23:00:00 16.3 5 Noroeste 12 Norte 0 -- -- 64
2018-04-17 22:00:00 15.4 3 Norte 9 Nordeste 0 -- -- 72
2018-04-17 21:00:00 15.8 0 Calma 6 Sudoeste 0 -- -- 75
2018-04-17 20:00:00 16.4 0 Calma 10 Este 0 -- -- 69
2018-04-17 19:00:00 19.5 4 Nordeste 12 Sur 0 -- -- 49
2018-04-17 18:00:00 21.5 5 Sur 15 Sur 0 -- -- 45
2018-04-17 17:00:00 20.8 9 Sur 17 Sur 0 -- -- 44
2018-04-17 16:00:00 21.7 5 Sur 19 Sudoeste 0 -- -- 44
2018-04-17 15:00:00 24.6 5 Sur 18 Sur 0 -- -- 34
2018-04-17 14:00:00 23.6 5 Sur 16 Sur 0 -- -- 33
2018-04-17 13:00:00 23.2 3 Este 12 Nordeste 0 -- -- 34
2018-04-17 12:00:00 22.5 2 Este 9 Nordeste 0 -- -- 37
2018-04-17 11:00:00 20.5 4 Nordeste 10 Nordeste 0 -- -- 47
2018-04-17 10:00:00 20.7 0 Calma 5 Nordeste 0 -- -- 46
2018-04-17 09:00:00 16.6 0 Calma 7 Norte 0 -- -- 65
2018-04-17 08:00:00 14 4 Norte 13 Norte 0 -- -- 69
2018-04-17 07:00:00 12.9 6 Noroeste 13 Sudoeste 0 -- -- 75
2018-04-17 06:00:00 11.5 3 Norte 8 Norte 0 -- -- 83
2018-04-17 05:00:00 11.3 3 Norte 6 Norte 0 -- -- 86
2018-04-17 04:00:00 11.4 0 Calma 6 Norte 0 -- -- 85
2018-04-17 03:00:00 12.9 3 Nordeste 10 Norte 0 -- -- 81
2018-04-17 02:00:00 11.8 3 Oeste 7 Sudoeste 0 -- -- 87
2018-04-17 01:00:00 12.1 0 Calma 5 Norte 0 -- -- 84
2018-04-17 00:00:00 12.1 0 Calma 4 Norte 0 -- -- 77
2018-04-16 23:00:00 13.7 2 Nordeste 11 Norte 0 -- -- 65
2018-04-16 22:00:00 14.8 4 Norte 10 Norte 0 -- -- 60
2018-04-16 21:00:00 14.7 3 Oeste 8 Sudoeste 0 -- -- 63
2018-04-16 20:00:00 17.1 0 Calma 5 Sur 0 -- -- 64
2018-04-16 19:00:00 17.2 0 Calma 6 Sur 0 -- -- 60
2018-04-16 18:00:00 17.7 0 Calma 10 Nordeste 0 -- -- 57
2018-04-16 17:00:00 17.7 0 Calma 10 Nordeste 0 -- -- 58
2018-04-16 16:00:00 18.7 2 Sudeste 12 Norte 0 -- -- 57
2018-04-16 15:00:00 16.7 3 Sudeste 12 Nordeste 0 -- -- 61
2018-04-16 14:00:00 19.2 0 Calma 10 Nordeste 0 -- -- 54
2018-04-16 13:00:00 18.3 3 Este 13 Este 0 -- -- 54
2018-04-16 12:00:00 18 3 Este 14 Nordeste 0 -- -- 56
2018-04-16 11:00:00 17.4 0 Calma 8 Sudeste 0 -- -- 63
2018-04-16 10:00:00 16 0 Calma 5 Sur 0 -- -- 72
2018-04-16 09:00:00 15.6 0 Calma 10 Norte 0 -- -- 69
2018-04-16 08:00:00 14.9 6 Norte 12 Norte 0 -- -- 64
2018-04-16 07:00:00 13.2 0 Calma 7 Norte 0 -- -- 78
2018-04-16 06:00:00 13.2 0 Calma 10 Sudoeste 0 -- -- 77
2018-04-16 05:00:00 14.6 4 Oeste 16 Norte 0 -- -- 63
2018-04-16 04:00:00 13.3 4 Norte 9 Norte 0 -- -- 72
2018-04-16 03:00:00 12.9 3 Noroeste 8 Norte 0 -- -- 78
2018-04-16 02:00:00 13.6 4 Norte 7 Norte 0 -- -- 79
2018-04-16 01:00:00 14.3 0 Calma 6 Sudoeste 0 -- -- 79
2018-04-16 00:00:00 13.9 0 Calma 8 Norte 0 -- -- 79
2018-04-15 23:00:00 13.2 4 Norte 8 Norte 0 -- -- 84
2018-04-15 22:00:00 13.1 0 Calma 5 Norte 0 -- -- 82
2018-04-15 21:00:00 14.2 0 Calma 5 Sur 0 -- -- 76
2018-04-15 20:00:00 15.8 0 Calma 13 Sur 0 -- -- 64
2018-04-15 19:00:00 16.9 6 Sur 14 Sudoeste 0 -- -- 55
2018-04-15 18:00:00 18 2 Sudeste 14 Nordeste 0 -- -- 51
2018-04-15 17:00:00 18.7 3 Este 19 Nordeste 0 -- -- 49
2018-04-15 16:00:00 19.6 5 Este 21 Sudoeste 0 -- -- 49
2018-04-15 15:00:00 21.1 8 Sur 23 Sudoeste 0 -- -- 43
2018-04-15 14:00:00 19.5 5 Sur 15 Nordeste 0 -- -- 48
2018-04-15 13:00:00 19.8 5 Nordeste 13 Nordeste 0 -- -- 44
2018-04-15 12:00:00 20.6 5 Sur 13 Sur 0 -- -- 46
2018-04-15 11:00:00 19 0 Calma 6 Nordeste 0 -- -- 51
2018-04-15 10:00:00 16.1 0 Calma 8 Norte 0 -- -- 63
2018-04-15 09:00:00 14.2 0 Calma 4 Norte 0 -- -- 72
2018-04-15 08:00:00 12.8 0 Calma 8 Oeste 0 -- -- 70
2018-04-15 07:00:00 12.3 2 Noroeste 9 Norte 0 -- -- 71
2018-04-15 06:00:00 12.9 2 Norte 11 Norte 0 -- -- 63
2018-04-15 05:00:00 12.2 6 Norte 11 Norte 0 -- -- 66
2018-04-15 04:00:00 13 2 Noroeste 12 Nordeste 0 -- -- 62
2018-04-15 03:00:00 13.5 9 Norte 16 Norte 0 -- -- 49
2018-04-15 02:00:00 14.5 6 Noroeste 17 Oeste 0 -- -- 44
2018-04-15 01:00:00 13.9 6 Norte 18 Sudoeste 0 -- -- 46
2018-04-15 00:00:00 14.3 8 Sudoeste 26 Noroeste 0 -- -- 46
2018-04-14 23:00:00 14.2 9 Norte 23 Norte 0 -- -- 47
2018-04-14 22:00:00 14.1 8 Norte 24 Noroeste 0 -- -- 49
2018-04-14 21:00:00 14.5 9 Norte 24 Norte 0 -- -- 50
2018-04-14 20:00:00 15.1 9 Nordeste 28 Nordeste 0 -- -- 49
2018-04-14 19:00:00 15.3 9 Norte 28 Norte 0 -- -- 49
2018-04-14 18:00:00 15.3 13 Norte 32 Norte 0 -- -- 52
2018-04-14 17:00:00 14.8 15 Norte 32 Noroeste 0 -- -- 62
2018-04-14 16:00:00 14.3 16 Norte 31 Norte 0.1 -- -- 71
2018-04-14 15:00:00 13.2 10 Norte 23 Noroeste 0.5 -- -- 81
2018-04-14 14:00:00 12.9 12 Oeste 27 Norte 1.8 -- -- 83
2018-04-14 13:00:00 12.8 8 Norte 19 Norte 2.2 -- -- 86
2018-04-14 12:00:00 13.2 8 Nordeste 22 Nordeste 1.1 -- -- 84
2018-04-14 11:00:00 14.1 8 Norte 21 Nordeste 0 -- -- 72
2018-04-14 10:00:00 13.9 8 Norte 22 Norte 0 -- -- 76
2018-04-14 09:00:00 13 10 Norte 22 Norte 0 -- -- 85
2018-04-14 08:00:00 12.4 8 Norte 15 Norte 0 -- -- 91
2018-04-14 07:00:00 12.4 0 Calma 9 Norte 0.1 -- -- 91
2018-04-14 06:00:00 12.9 4 Norte 8 Norte 0.2 -- -- 91
2018-04-14 05:00:00 13.4 0 Calma 5 Este 0 -- -- 91
2018-04-14 04:00:00 13.7 2 Este 16 Nordeste 0.4 -- -- 91
2018-04-14 03:00:00 13.8 2 Este 15 Sur 2.2 -- -- 91
2018-04-14 02:00:00 13.7 2 Este 18 Sudeste 0.6 -- -- 91
2018-04-14 01:00:00 13.8 2 Este 8 Nordeste 0 -- -- 90
2018-04-14 00:00:00 13.5 3 Norte 8 Norte 0 -- -- 90
2018-04-13 23:00:00 13.1 2 Norte 11 Sudoeste 0 -- -- 90
2018-04-13 22:00:00 13 4 Norte 9 Norte 0.1 -- -- 90
2018-04-13 21:00:00 13.3 0 Calma 6 Nordeste 0 -- -- 89
2018-04-13 20:00:00 13.2 0 Calma 7 Nordeste 0 -- -- 89
2018-04-13 19:00:00 13.7 0 Calma 7 Este 0 -- -- 87
2018-04-13 18:00:00 13.1 0 Calma 7 Nordeste 0.2 -- -- 87
2018-04-13 17:00:00 13.6 0 Calma 10 Este 0 -- -- 82
2018-04-13 16:00:00 14.2 0 Calma 7 Norte 0.1 -- -- 87
2018-04-13 15:00:00 13.1 2 Sudoeste 17 Sudoeste 1.7 -- -- 90
2018-04-13 14:00:00 12.9 8 Sur 18 Sudoeste 1.7 -- -- 89
2018-04-13 13:00:00 14.6 3 Este 11 Sudeste 0 -- -- 73
2018-04-13 12:00:00 14.6 2 Este 13 Nordeste 0 -- -- 72
2018-04-13 11:00:00 15 2 Este 10 Nordeste 0 -- -- 72
2018-04-13 10:00:00 14.5 2 Nordeste 7 Norte 0 -- -- 78
2018-04-13 09:00:00 13.6 0 Calma 4 Norte 0 -- -- 90
2018-04-13 08:00:00 12.3 0 Calma 3 Nordeste 0 -- -- 90
2018-04-13 07:00:00 11.2 2 Norte 10 Norte 0 -- -- 90
2018-04-13 06:00:00 10.6 3 Norte 10 Norte 0 -- -- 90
2018-04-13 05:00:00 10.2 5 Norte 12 Norte 0 -- -- 91
2018-04-13 04:00:00 9.9 6 Norte 10 Norte 0 -- -- 91
2018-04-13 03:00:00 10.2 4 Norte 10 Norte 0 -- -- 90
2018-04-13 02:00:00 10.7 5 Norte 10 Norte 0 -- -- 90
2018-04-13 01:00:00 9.9 4 Norte 6 Norte 0 -- -- 90
2018-04-13 00:00:00 10.3 4 Norte 10 Norte 0 -- -- 89
2018-04-12 23:00:00 10.5 3 Noroeste 10 Norte 0 -- -- 89
2018-04-12 22:00:00 10.9 3 Oeste 8 Oeste 0 -- -- 88
2018-04-12 21:00:00 11.9 0 Calma 5 Norte 0 -- -- 83
2018-04-12 20:00:00 13.8 3 Sur 9 Sur 0 -- -- 73
2018-04-12 19:00:00 14.4 4 Sur 14 Sudoeste 0 -- -- 67
2018-04-12 18:00:00 14.6 4 Sudoeste 22 Sur 0 -- -- 55
2018-04-12 17:00:00 15 7 Sur 21 Sudoeste 0 -- -- 54
2018-04-12 16:00:00 16.1 8 Sur 24 Sur 0 -- -- 51
2018-04-12 15:00:00 16.1 8 Sur 19 Sur 0 -- -- 51
2018-04-12 14:00:00 16.9 4 Sudeste 17 Sudeste 0 -- -- 44
2018-04-12 13:00:00 17.4 8 Sur 23 Sur 0 -- -- 46
2018-04-12 12:00:00 16.5 3 Sudeste 16 Nordeste 0 -- -- 47
2018-04-12 11:00:00 13.6 3 Nordeste 17 Norte 0 -- -- 50
2018-04-12 10:00:00 13.9 4 Sur 13 Sudoeste 0 -- -- 55
2018-04-12 09:00:00 10.9 4 Oeste 17 Sudoeste 0 -- -- 66
2018-04-12 08:00:00 8.6 3 Sur 13 Norte 0 -- -- 83
2018-04-12 07:00:00 7.9 7 Norte 15 Norte 0 -- -- 85
2018-04-12 06:00:00 7.3 6 Norte 12 Norte 0 -- -- 86
2018-04-12 05:00:00 8 5 Norte 19 Sudoeste 0 -- -- 81
2018-04-12 04:00:00 8.4 2 Noroeste 14 Norte 0 -- -- 86
2018-04-12 03:00:00 8.6 7 Norte 17 Norte 0.1 -- -- 86
2018-04-12 02:00:00 9.1 9 Norte 17 Norte 0.2 -- -- 86
2018-04-12 01:00:00 9 8 Norte 19 Norte 0.7 -- -- 89
2018-04-12 00:00:00 9.2 6 Noroeste 16 Norte 2.7 -- -- 90
2018-04-11 23:00:00 9.5 3 Nordeste 22 Nordeste 1.2 -- -- 85
2018-04-11 22:00:00 11.9 4 Nordeste 10 Norte 0 -- -- 72
2018-04-11 21:00:00 11.8 0 Calma 9 Nordeste 0 -- -- 69
2018-04-11 20:00:00 12.2 0 Calma 10 Este 0 -- -- 64
2018-04-11 19:00:00 14.4 0 Calma 9 Sur 0 -- -- 53
2018-04-11 18:00:00 13.2 7 Sur 21 Sur 0 -- -- 62
2018-04-11 17:00:00 14.4 7 Sur 25 Sur 0 -- -- 58
2018-04-11 16:00:00 13.8 10 Sur 26 Sur 0 -- -- 55
2018-04-11 15:00:00 16.4 9 Sur 30 Sur 0 -- -- 54
2018-04-11 14:00:00 13.7 8 Sur 21 Sur 0 -- -- 63
2018-04-11 13:00:00 15.8 10 Sur 22 Sudoeste 0 -- -- 58
2018-04-11 12:00:00 13.2 3 Sudeste 12 Sudeste 0.6 -- -- 85
2018-04-11 11:00:00 10.3 2 Este 14 Este 0.3 -- -- 88
2018-04-11 10:00:00 9.7 3 Norte 15 Norte 0.4 -- -- 91
2018-04-11 09:00:00 9.6 8 Norte 16 Norte 4.1 -- -- 91
2018-04-11 08:00:00 10.4 4 Sur 36 Sur 4.9 -- -- 91
2018-04-11 07:00:00 12.2 9 Sudeste 40 Nordeste 2.7 -- -- 91
2018-04-11 06:00:00 12.5 9 Sudeste 37 Sudeste 1 -- -- 91
2018-04-11 05:00:00 12.1 8 Sudeste 28 Sudeste 1.7 -- -- 91
2018-04-11 04:00:00 11.9 7 Sudeste 34 Sudeste 2.9 -- -- 91
2018-04-11 03:00:00 12.5 6 Sudeste 21 Sudeste 5.1 -- -- 91
2018-04-11 02:00:00 11.8 2 Sudeste 15 Este 4.8 -- -- 91
2018-04-11 01:00:00 12.1 4 Sudeste 18 Sudeste 3.4 -- -- 91
2018-04-11 00:00:00 12.5 4 Sudeste 33 Este 1.3 -- -- 89
2018-04-10 23:00:00 13.3 2 Sudeste 16 Sur 0 -- -- 86
2018-04-10 22:00:00 13.2 5 Sur 17 Sudoeste 0 -- -- 88
2018-04-10 21:00:00 13.4 5 Sur 13 Sur 0 -- -- 88
2018-04-10 20:00:00 13.3 4 Sur 15 Sur 0 -- -- 83
2018-04-10 19:00:00 13.4 6 Sur 21 Sur 0 -- -- 87
2018-04-10 18:00:00 14.1 4 Sur 14 Sur 3.3 -- -- 89
2018-04-10 17:00:00 12.6 9 Sur 22 Sudoeste 1.7 -- -- 77
2018-04-10 16:00:00 14.9 5 Sur 18 Sudoeste 0 -- -- 61
2018-04-10 15:00:00 14.6 9 Sur 27 Sudoeste 0 -- -- 54
2018-04-10 14:00:00 16 12 Sudoeste 29 Sur 0 -- -- 48
2018-04-10 13:00:00 16.8 11 Sur 27 Sudoeste 0 -- -- 39
2018-04-10 12:00:00 16.5 11 Sur 27 Sudoeste 0 -- -- 45
2018-04-10 11:00:00 16.4 7 Sudoeste 21 Oeste 0 -- -- 42
2018-04-10 10:00:00 15 8 Sudoeste 21 Sur 0 -- -- 48
2018-04-10 09:00:00 10.9 5 Sudoeste 16 Sudoeste 0 -- -- 64
2018-04-10 08:00:00 9.2 6 Oeste 13 Sudoeste 0 -- -- 70
2018-04-10 07:00:00 7.4 4 Oeste 9 Sudoeste 0 -- -- 82
2018-04-10 06:00:00 9.4 6 Oeste 14 Oeste 0 -- -- 67
2018-04-10 05:00:00 9.1 4 Oeste 12 Sudoeste 0 -- -- 68
2018-04-10 04:00:00 8.5 4 Sudoeste 9 Sur 0 -- -- 78
2018-04-10 03:00:00 9 4 Sur 12 Sur 0 -- -- 73
2018-04-10 02:00:00 10 7 Sur 19 Oeste 0 -- -- 67
2018-04-10 01:00:00 10 3 Oeste 19 Oeste 0 -- -- 65
2018-04-10 00:00:00 10.9 11 Sudoeste 24 Sudoeste 0.6 -- -- 63
2018-04-09 23:00:00 11.7 10 Oeste 30 Noroeste 0.1 -- -- 69
2018-04-09 22:00:00 13.8 6 Sur 22 Sur 0 -- -- 66
2018-04-09 21:00:00 13.9 7 Sur 18 Sudoeste 0 -- -- 67
2018-04-09 20:00:00 14.1 7 Sur 18 Sudoeste 0 -- -- 67
2018-04-09 19:00:00 14.5 6 Sudoeste 26 Sudoeste 0 -- -- 63
2018-04-09 18:00:00 17.1 13 Sudoeste 32 Sudoeste 0 -- -- 50
2018-04-09 17:00:00 17.1 11 Sur 27 Sudoeste 0 -- -- 63
2018-04-09 16:00:00 16.6 13 Sur 27 Sur 0 -- -- 62
2018-04-09 15:00:00 18.8 10 Sudoeste 26 Sur 0 -- -- 50
2018-04-09 14:00:00 17 12 Sur 24 Sudoeste 0 -- -- 58
2018-04-09 13:00:00 16.3 9 Sur 20 Sudoeste 0 -- -- 63
2018-04-09 12:00:00 15.1 8 Sur 22 Sudoeste 0 -- -- 71
2018-04-09 11:00:00 14.9 8 Sur 20 Este 0 -- -- 72
2018-04-09 10:00:00 15.8 5 Sur 11 Sur 0 -- -- 72
2018-04-09 09:00:00 11.5 0 Calma 7 Nordeste 0 -- -- 91
2018-04-09 08:00:00 10.2 3 Noroeste 7 Nordeste 0 -- -- 91
2018-04-09 07:00:00 10.8 3 Noroeste 7 Oeste 0 -- -- 91
2018-04-09 06:00:00 11.2 3 Norte 8 Norte 0 -- -- 91
2018-04-09 05:00:00 11.3 2 Norte 6 Norte 0.1 -- -- 91
2018-04-09 04:00:00 11.4 0 Calma 5 Norte 0.6 -- -- 91
2018-04-09 03:00:00 11.5 2 Norte 5 Norte 0.3 -- -- 91
2018-04-09 02:00:00 11.9 0 Calma 7 Noroeste 0.5 -- -- 91
2018-04-09 01:00:00 12.1 3 Sudoeste 6 Sudoeste 0.6 -- -- 90
2018-04-09 00:00:00 12.2 0 Calma 12 Oeste 0 -- -- 85
2018-04-08 23:00:00 11.9 4 Oeste 8 Sudoeste 0 -- -- 90
2018-04-08 22:00:00 12 2 Sur 17 Sudoeste 0.1 -- -- 87
2018-04-08 21:00:00 12 4 Oeste 12 Noroeste 0.2 -- -- 90
2018-04-08 20:00:00 13 0 Calma 13 Sur 0.3 -- -- 91
2018-04-08 19:00:00 14.3 2 Sur 8 Sur 0.8 -- -- 90
2018-04-08 18:00:00 14.1 0 Calma 10 Sudeste 0.2 -- -- 88
2018-04-08 17:00:00 15.3 4 Oeste 8 Oeste 0 -- -- 74
2018-04-08 16:00:00 14.8 3 Sudeste 12 Sur 0 -- -- 85
2018-04-08 15:00:00 15.5 7 Sur 17 Sudoeste 0 -- -- 84
2018-04-08 14:00:00 16.2 6 Sudeste 15 Sudeste 0 -- -- 81
2018-04-08 13:00:00 15.3 0 Calma 5 Sudeste 0 -- -- 90
2018-04-08 12:00:00 14.4 0 Calma 11 Norte 2 -- -- 91
2018-04-08 11:00:00 14.1 4 Norte 14 Norte 1.7 -- -- 91
2018-04-08 10:00:00 14.1 4 Nordeste 17 Norte 0.5 -- -- 89
2018-04-08 09:00:00 14.3 8 Nordeste 18 Nordeste 0 -- -- 82
2018-04-08 08:00:00 14.3 4 Nordeste 14 Este 0 -- -- 82
2018-04-08 07:00:00 13.9 4 Nordeste 16 Norte 0 -- -- 82
2018-04-08 06:00:00 14.4 2 Nordeste 16 Norte 0 -- -- 75
2018-04-08 05:00:00 14.6 7 Norte 17 Norte 0 -- -- 73
2018-04-08 04:00:00 14.6 7 Norte 23 Norte 0 -- -- 70
2018-04-08 03:00:00 14.9 7 Norte 23 Norte 0 -- -- 63
2018-04-08 02:00:00 15.1 7 Nordeste 23 Nordeste 0 -- -- 61
2018-04-08 01:00:00 15.5 7 Norte 18 Nordeste 0 -- -- 58
2018-04-08 00:00:00 15.4 5 Nordeste 16 Nordeste 0 -- -- 55
2018-04-07 23:00:00 15.8 4 Norte 20 Norte 0 -- -- 54
2018-04-07 22:00:00 15.8 5 Nordeste 23 Nordeste 0 -- -- 52
2018-04-07 21:00:00 15.8 8 Nordeste 28 Nordeste 0 -- -- 54
2018-04-07 20:00:00 16 6 Norte 24 Nordeste 0 -- -- 54
2018-04-07 19:00:00 16.7 3 Norte 24 Este 0 -- -- 54
2018-04-07 18:00:00 17.2 4 Nordeste 23 Este 0 -- -- 51
2018-04-07 17:00:00 17.7 5 Nordeste 22 Este 0 -- -- 50
2018-04-07 16:00:00 19.7 4 Sudeste 27 Sudeste 0 -- -- 47
2018-04-07 15:00:00 19.2 5 Este 28 Nordeste 0 -- -- 50
2018-04-07 14:00:00 16.4 3 Nordeste 24 Norte 0 -- -- 60
2018-04-07 13:00:00 17.6 3 Nordeste 27 Nordeste 0 -- -- 55
2018-04-07 12:00:00 17.3 6 Nordeste 30 Norte 0 -- -- 56
2018-04-07 11:00:00 16 5 Nordeste 31 Norte 0 -- -- 62
2018-04-07 10:00:00 15.6 10 Norte 38 Nordeste 0 -- -- 62
2018-04-07 09:00:00 14.7 18 Norte 35 Norte 0 -- -- 64
2018-04-07 08:00:00 14 12 Norte 31 Nordeste 0 -- -- 68
2018-04-07 07:00:00 13.6 7 Nordeste 22 Nordeste 0 -- -- 67
2018-04-07 06:00:00 13.6 6 Norte 27 Nordeste 0 -- -- 72
2018-04-07 05:00:00 14.1 4 Nordeste 18 Norte 0 -- -- 63
2018-04-07 04:00:00 13.8 6 Norte 14 Nordeste 0 -- -- 64
2018-04-07 03:00:00 12.5 5 Norte 9 Norte 0 -- -- 70
2018-04-07 02:00:00 13.6 4 Norte 12 Norte 0 -- -- 66
2018-04-07 01:00:00 13.8 6 Norte 11 Norte 0 -- -- 68
2018-04-07 00:00:00 14.7 3 Norte 15 Norte 0 -- -- 66
2018-04-06 23:00:00 14.4 4 Norte 14 Norte 0 -- -- 67
2018-04-06 22:00:00 14.5 4 Noroeste 10 Norte 0 -- -- 68
2018-04-06 21:00:00 14.1 4 Norte 8 Norte 0 -- -- 73
2018-04-06 20:00:00 14.9 2 Este 10 Sudeste 0 -- -- 71
2018-04-06 19:00:00 16.9 2 Este 10 Este 0 -- -- 58
2018-04-06 18:00:00 17.3 3 Este 10 Nordeste 0 -- -- 55
2018-04-06 17:00:00 19.1 2 Este 12 Nordeste 0 -- -- 43
2018-04-06 16:00:00 18.6 5 Sur 12 Nordeste 0 -- -- 57
2018-04-06 15:00:00 19.9 3 Sudeste 11 Sudeste 0 -- -- 50
2018-04-06 14:00:00 15.3 4 Sur 13 Este 0 -- -- 75
2018-04-06 13:00:00 18.4 4 Sur 17 Sur 0 -- -- 60
2018-04-06 12:00:00 17.9 3 Este 13 Sur 0 -- -- 53
2018-04-06 11:00:00 18.6 3 Sur 11 Sudoeste 0 -- -- 43
2018-04-06 10:00:00 18.3 5 Sur 10 Sur 0 -- -- 48
2018-04-06 09:00:00 13.2 0 Calma 4 Norte 0 -- -- 75
2018-04-06 08:00:00 10.1 0 Calma 7 Norte 0 -- -- 81
2018-04-06 07:00:00 9.3 0 Calma 6 Nordeste 0 -- -- 86
2018-04-06 06:00:00 9.2 0 Calma 8 Norte 0 -- -- 90
2018-04-06 05:00:00 9.3 0 Calma 8 Norte 0 -- -- 91
2018-04-06 04:00:00 9.9 2 Norte 8 Norte 0 -- -- 91
2018-04-06 03:00:00 10.3 3 Noroeste 9 Norte 0 -- -- 91
2018-04-06 02:00:00 10.2 4 Norte 8 Norte 0 -- -- 91
2018-04-06 01:00:00 10.7 3 Norte 7 Noroeste 0 -- -- 90
2018-04-06 00:00:00 11.5 2 Norte 9 Norte 0 -- -- 90
2018-04-05 23:00:00 13.1 0 Calma 6 Sudoeste 0 -- -- 86
2018-04-05 22:00:00 13.1 0 Calma 7 Sur 0 -- -- 86
2018-04-05 21:00:00 14 4 Sur 13 Sudoeste 0 -- -- 84
2018-04-05 20:00:00 14.9 5 Sur 17 Sudoeste 0 -- -- 78
2018-04-05 19:00:00 15.3 5 Sur 18 Sur 0 -- -- 76
2018-04-05 18:00:00 16 5 Sur 22 Sur 0 -- -- 68
2018-04-05 17:00:00 18.6 8 Sur 21 Sudoeste 0 -- -- 58
2018-04-05 16:00:00 17.7 8 Sur 23 Sur 0 -- -- 57
2018-04-05 15:00:00 17.6 10 Sur 25 Sur 0 -- -- 56
2018-04-05 14:00:00 18.1 8 Sur 24 Sudoeste 0 -- -- 56
2018-04-05 13:00:00 18.8 4 Sudeste 18 Sur 0 -- -- 54
2018-04-05 12:00:00 19.8 3 Sur 15 Norte 0 -- -- 47
2018-04-05 11:00:00 19.1 3 Sudeste 15 Este 0 -- -- 49
2018-04-05 10:00:00 17.4 5 Sur 10 Sur 0 -- -- 54
2018-04-05 09:00:00 14.7 0 Calma 5 Sur 0 -- -- 72
2018-04-05 08:00:00 11.5 0 Calma 7 Norte 0 -- -- 79
2018-04-05 07:00:00 11.2 4 Norte 10 Norte 0 -- -- 76
2018-04-05 06:00:00 11.1 5 Norte 10 Norte 0 -- -- 70
2018-04-05 05:00:00 11.2 4 Norte 9 Norte 0 -- -- 67
2018-04-05 04:00:00 11.3 0 Calma 8 Norte 0 -- -- 65
2018-04-05 03:00:00 12.4 4 Norte 9 Norte 0 -- -- 58
2018-04-05 02:00:00 13 4 Oeste 9 Oeste 0 -- -- 54
2018-04-05 01:00:00 13.7 3 Norte 8 Norte 0 -- -- 49
2018-04-05 00:00:00 15.4 4 Sudoeste 16 Este 0 -- -- 44
2018-04-04 23:00:00 18.6 3 Norte 34 Sudoeste 0 -- -- 31
2018-04-04 22:00:00 19.2 7 Oeste 22 Noroeste 0 -- -- 30
2018-04-04 21:00:00 19.4 11 Oeste 26 Oeste 0 -- -- 29
2018-04-04 20:00:00 20.5 12 Oeste 40 Oeste 0 -- -- 26
2018-04-04 19:00:00 22.6 5 Sudoeste 35 Oeste 0 -- -- 23
2018-04-04 18:00:00 23.6 13 Oeste 38 Oeste 0 -- -- 23
2018-04-04 17:00:00 24.2 13 Oeste 36 Sudoeste 0 -- -- 23
2018-04-04 16:00:00 23.9 13 Sudoeste 33 Sudoeste 0 -- -- 23
2018-04-04 15:00:00 23.6 15 Sudoeste 43 Sudoeste 0 -- -- 25
2018-04-04 14:00:00 23 13 Sudoeste 31 Sudoeste 0 -- -- 28
2018-04-04 13:00:00 17.8 15 Sur 41 Sudoeste 0 -- -- 55
2018-04-04 12:00:00 19.2 11 Sudoeste 33 Sudoeste 0 -- -- 42
2018-04-04 11:00:00 18.6 11 Sudoeste 23 Sudoeste 0 -- -- 54
2018-04-04 10:00:00 16.8 12 Sur 21 Sur 0 -- -- 65
2018-04-04 09:00:00 14.2 9 Sur 23 Sudoeste 0 -- -- 74
2018-04-04 08:00:00 12.9 5 Oeste 21 Sur 0 -- -- 81
2018-04-04 07:00:00 13.1 4 Oeste 14 Sudoeste 0 -- -- 81
2018-04-04 06:00:00 13.5 4 Oeste 13 Oeste 0 -- -- 83
2018-04-04 05:00:00 13.4 3 Sudoeste 12 Sudoeste 0 -- -- 90
2018-04-04 04:00:00 14.2 5 Sudoeste 14 Sudoeste 0 -- -- 91
2018-04-04 03:00:00 14.2 5 Sur 14 Sudoeste 0 -- -- 90
2018-04-04 02:00:00 14.1 3 Sur 9 Oeste 0 -- -- 90
2018-04-04 01:00:00 14 2 Oeste 8 Oeste 0 -- -- 90
2018-04-04 00:00:00 12.4 0 Calma 7 Sudoeste 0 -- -- 90
2018-04-03 23:00:00 11.8 0 Calma 6 Sudoeste 0 -- -- 90
2018-04-03 22:00:00 12.8 0 Calma 15 Sudoeste 0 -- -- 89
2018-04-03 21:00:00 13.4 8 Sudoeste 23 Sudoeste 0 -- -- 88
2018-04-03 20:00:00 13.8 9 Sudoeste 27 Sudoeste 0 -- -- 85
2018-04-03 19:00:00 15 7 Sur 27 Sudoeste 0 -- -- 73
2018-04-03 18:00:00 16 14 Sudoeste 44 Sur 0 -- -- 71
2018-04-03 17:00:00 17.2 10 Sudoeste 32 Sur 0 -- -- 63
2018-04-03 16:00:00 18 11 Sudoeste 26 Sudoeste 0 -- -- 58
2018-04-03 15:00:00 16.8 12 Sur 26 Sur 0 -- -- 62
2018-04-03 14:00:00 18.2 10 Sur 20 Sur 0 -- -- 60
2018-04-03 13:00:00 17.8 5 Sur 17 Sur 0 -- -- 62
2018-04-03 12:00:00 16.5 8 Sur 17 Sur 0 -- -- 62
2018-04-03 11:00:00 16.8 5 Sudeste 14 Este 0 -- -- 60
2018-04-03 10:00:00 16.3 3 Sudoeste 9 Sudoeste 0 -- -- 63
2018-04-03 09:00:00 12.5 5 Norte 9 Norte 0 -- -- 84
2018-04-03 08:00:00 10.6 0 Calma 12 Noroeste 0 -- -- 90
2018-04-03 07:00:00 10.6 3 Noroeste 9 Norte 0 -- -- 90
2018-04-03 06:00:00 10.3 3 Norte 7 Sudoeste 0 -- -- 90
2018-04-03 05:00:00 11.3 0 Calma 7 Noroeste 0 -- -- 89
2018-04-03 04:00:00 12.5 3 Norte 11 Norte 0 -- -- 85
2018-04-03 03:00:00 13.6 4 Norte 9 Nordeste 0 -- -- 81
2018-04-03 02:00:00 13.8 3 Norte 8 Norte 0 -- -- 80
2018-04-03 01:00:00 13.8 2 Norte 7 Norte 0 -- -- 79
2018-04-03 00:00:00 14 2 Nordeste 13 Sudoeste 0 -- -- 82
2018-04-02 23:00:00 13.9 5 Norte 13 Norte 0 -- -- 82
2018-04-02 22:00:00 13.9 3 Norte 10 Nordeste 0 -- -- 81
2018-04-02 21:00:00 13.9 3 Norte 9 Nordeste 0 -- -- 79
2018-04-02 20:00:00 14.3 0 Calma 9 Este 0 -- -- 74
2018-04-02 19:00:00 15 0 Calma 11 Nordeste 0 -- -- 68
2018-04-02 18:00:00 16.6 3 Nordeste 11 Nordeste 0 -- -- 49
2018-04-02 17:00:00 17 2 Este 14 Nordeste 0 -- -- 43
2018-04-02 16:00:00 17.8 2 Sudeste 14 Este 0 -- -- 39
2018-04-02 15:00:00 18.7 4 Sudeste 17 Sur 0 -- -- 29
2018-04-02 14:00:00 17.6 7 Sur 16 Sur 0 -- -- 28
2018-04-02 13:00:00 18 8 Sur 17 Sur 0 -- -- 38
2018-04-02 12:00:00 16.8 7 Sur 20 Sudoeste 0 -- -- 43
2018-04-02 11:00:00 15.8 7 Sudoeste 18 Sudoeste 0 -- -- 54
2018-04-02 10:00:00 16.3 3 Sudoeste 8 Oeste 0 -- -- 47
2018-04-02 09:00:00 10.9 0 Calma 7 Norte 0 -- -- 70
2018-04-02 08:00:00 8.1 3 Norte 7 Nordeste 0 -- -- 76
2018-04-02 07:00:00 7.7 3 Norte 6 Norte 0 -- -- 77
2018-04-02 06:00:00 7.7 4 Norte 6 Norte 0 -- -- 77
2018-04-02 05:00:00 8.2 0 Calma 6 Norte 0 -- -- 73
2018-04-02 04:00:00 8.5 0 Calma 5 Norte 0 -- -- 72
2018-04-02 03:00:00 9.7 0 Calma 14 Oeste 0 -- -- 59
2018-04-02 02:00:00 12.7 2 Oeste 15 Noroeste 0 -- -- 45
2018-04-02 01:00:00 11 3 Este 7 Sudeste 0 -- -- 64
2018-04-02 00:00:00 9.9 0 Calma 7 Sudoeste 0 -- -- 76
2018-04-01 23:00:00 10.2 0 Calma 8 Noroeste 0 -- -- 80
2018-04-01 22:00:00 12 3 Sudoeste 8 Sudoeste 0 -- -- 77
2018-04-01 21:00:00 12 0 Calma 11 Sudoeste 0 -- -- 76
2018-04-01 20:00:00 12.6 6 Sur 13 Sur 0 -- -- 67
2018-04-01 19:00:00 14.2 7 Sur 15 Sudoeste 0 -- -- 48
2018-04-01 18:00:00 14.9 6 Sur 15 Sur 0 -- -- 45
2018-04-01 17:00:00 15.8 4 Este 15 Sur 0 -- -- 48
2018-04-01 16:00:00 15.6 3 Sudeste 18 Sudeste 0 -- -- 48
2018-04-01 15:00:00 15.8 4 Sudeste 20 Nordeste 0 -- -- 49
2018-04-01 14:00:00 16 4 Este 17 Nordeste 0 -- -- 46
2018-04-01 13:00:00 16.2 3 Este 14 Nordeste 0 -- -- 38
2018-04-01 12:00:00 16.8 4 Sur 12 Sur 0 -- -- 38
2018-04-01 11:00:00 15.1 3 Sudeste 12 Este 0 -- -- 41
2018-04-01 10:00:00 15.1 2 Sur 8 Sudoeste 0 -- -- 41
2018-04-01 09:00:00 8.3 2 Nordeste 13 Norte 0 -- -- 48
2018-04-01 08:00:00 6.7 7 Norte 13 Norte 0 -- -- 45
2018-04-01 07:00:00 6.3 0 Calma 13 Sudoeste 0 -- -- 39
2018-04-01 06:00:00 9.4 9 Sudoeste 14 Sudoeste 0 -- -- 33
2018-04-01 05:00:00 9.2 0 Calma 18 Norte 0 -- -- 32
2018-04-01 04:00:00 10.4 12 Norte 21 Norte 0 -- -- 33
2018-04-01 03:00:00 11.1 6 Oeste 15 Noroeste 0 -- -- 34
2018-04-01 02:00:00 10 2 Oeste 18 Norte 0 -- -- 35
2018-04-01 01:00:00 11.5 5 Oeste 20 Norte 0 -- -- 35
2018-04-01 00:00:00 7.5 6 Norte 12 Norte 0 -- -- 63
2018-03-31 23:00:00 8 5 Norte 12 Norte 0 -- -- 73
2018-03-31 22:00:00 9 3 Oeste 13 Norte 0 -- -- 72
2018-03-31 21:00:00 10.2 6 Norte 14 Norte 0 -- -- 65
2018-03-31 20:00:00 12 2 Norte 13 Nordeste 0 -- -- 57
2018-03-31 19:00:00 13.9 3 Este 15 Este 0 -- -- 47
2018-03-31 18:00:00 15.1 3 Este 19 Este 0 -- -- 49
2018-03-31 17:00:00 15.9 6 Este 33 Sur 0 -- -- 42
2018-03-31 16:00:00 17.9 12 Oeste 38 Oeste 0 -- -- 26
2018-03-31 15:00:00 16.7 9 Oeste 39 Noroeste 0 -- -- 35
2018-03-31 14:00:00 17.2 11 Oeste 45 Sudoeste 0 -- -- 36
2018-03-31 13:00:00 13.8 15 Oeste 50 Noroeste 0 -- -- 39
2018-03-31 12:00:00 14.9 15 Oeste 51 Sudoeste 0 -- -- 38
2018-03-31 11:00:00 12.5 16 Oeste 50 Oeste 0 -- -- 43
2018-03-31 10:00:00 12.4 12 Oeste 50 Oeste 0 -- -- 47
2018-03-31 09:00:00 10.4 9 Oeste 31 Oeste 0 -- -- 55
2018-03-31 08:00:00 9.8 7 Sudoeste 25 Noroeste 0 -- -- 56
2018-03-31 07:00:00 10.9 8 Oeste 31 Oeste 0 -- -- 49
2018-03-31 06:00:00 11.7 11 Oeste 33 Sudoeste 0 -- -- 43
2018-03-31 05:00:00 8.7 0 Calma 9 Oeste 0 -- -- 61
2018-03-31 04:00:00 11.1 5 Sudoeste 13 Sudoeste 0 -- -- 53
2018-03-31 03:00:00 10.3 2 Sudoeste 16 Oeste 0 -- -- 58
2018-03-31 02:00:00 10.6 2 Sur 19 Norte 0 -- -- 57
2018-03-31 01:00:00 11.9 4 Oeste 11 Sudoeste 0 -- -- 53
2018-03-31 00:00:00 12.1 2 Oeste 10 Sudoeste 0 -- -- 53
2018-03-30 23:00:00 11 0 Calma 9 Oeste 0 -- -- 50
2018-03-30 22:00:00 12.8 2 Sudoeste 16 Sudoeste 0 -- -- 42
2018-03-30 21:00:00 14.5 5 Oeste 23 Oeste 0 -- -- 36
2018-03-30 20:00:00 15.3 8 Oeste 29 Oeste 0 -- -- 35
2018-03-30 19:00:00 16.2 10 Sudoeste 47 Sudoeste 0 -- -- 35
2018-03-30 18:00:00 17.2 15 Sudoeste 42 Sudoeste 0 -- -- 38
2018-03-30 17:00:00 20.8 8 Sudoeste 33 Sudoeste 0 -- -- 23
2018-03-30 16:00:00 21.3 13 Sudoeste 39 Sudoeste 0 -- -- 20
2018-03-30 15:00:00 21.8 9 Sudoeste 37 Sudoeste 0 -- -- 24
2018-03-30 14:00:00 21.1 13 Sudoeste 39 Sudoeste 0 -- -- 25
2018-03-30 13:00:00 19.3 13 Sudoeste 36 Sudoeste 0 -- -- 28
2018-03-30 12:00:00 18.7 17 Sudoeste 38 Sudoeste 0 -- -- 29
2018-03-30 11:00:00 17.7 11 Oeste 38 Oeste 0 -- -- 32
2018-03-30 10:00:00 16.3 10 Sudoeste 24 Sudoeste 0 -- -- 48
2018-03-30 09:00:00 12.4 8 Sudoeste 21 Sudoeste 0 -- -- 75
2018-03-30 08:00:00 11.1 7 Sudoeste 15 Sudoeste 0 -- -- 81
2018-03-30 07:00:00 11.4 4 Sudoeste 12 Sudoeste 0 -- -- 80
2018-03-30 06:00:00 11.8 3 Oeste 9 Sudoeste 0 -- -- 87
2018-03-30 05:00:00 9.8 4 Norte 6 Norte 0 -- -- 91
2018-03-30 04:00:00 9.9 3 Oeste 9 Sudoeste 0 -- -- 90
2018-03-30 03:00:00 11.2 3 Norte 5 Nordeste 0 -- -- 89
2018-03-30 02:00:00 11.2 3 Norte 8 Sudoeste 0 -- -- 89
2018-03-30 01:00:00 10 3 Noroeste 9 Norte 0 -- -- 89
2018-03-30 00:00:00 9.9 5 Norte 8 Norte 0 -- -- 88
2018-03-29 23:00:00 10.2 2 Noroeste 7 Nordeste 0 -- -- 84
2018-03-29 22:00:00 10.9 2 Norte 5 Oeste 0 -- -- 79
2018-03-29 21:00:00 11.5 2 Nordeste 6 Sudoeste 0 -- -- 73
2018-03-29 20:00:00 12.8 4 Sur 8 Sur 0 -- -- 67
2018-03-29 19:00:00 13.8 3 Sur 10 Sur 0 -- -- 60
2018-03-29 18:00:00 16.5 5 Sur 15 Nordeste 0 -- -- 49
2018-03-29 17:00:00 16 3 Sudeste 15 Sur 0 -- -- 53
2018-03-29 16:00:00 18 4 Sur 14 Nordeste 0 -- -- 49
2018-03-29 15:00:00 16.6 5 Sudeste 17 Sur 0 -- -- 61
2018-03-29 14:00:00 16.9 7 Sur 18 Sur 0 -- -- 61
2018-03-29 13:00:00 16.6 6 Sur 15 Sur 0 -- -- 65
2018-03-29 12:00:00 16.5 4 Este 13 Nordeste 0 -- -- 63
2018-03-29 11:00:00 16.8 3 Sudeste 13 Sur 0 -- -- 63
2018-03-29 10:00:00 15.3 8 Sur 14 Sur 0 -- -- 66
2018-03-29 09:00:00 13.4 3 Oeste 8 Norte 0 -- -- 72
2018-03-29 08:00:00 12.8 2 Norte 11 Norte 0 -- -- 71
2018-03-29 07:00:00 12.7 4 Norte 13 Norte 0 -- -- 71
2018-03-29 06:00:00 13.5 4 Norte 17 Nordeste 0 -- -- 66
2018-03-29 05:00:00 12.4 6 Norte 13 Norte 0 -- -- 72
2018-03-29 04:00:00 11.8 9 Norte 16 Norte 0 -- -- 77
2018-03-29 03:00:00 9.8 2 Norte 6 Norte 0 -- -- 91
2018-03-29 02:00:00 10.2 0 Calma 5 Norte 0 -- -- 90
2018-03-29 01:00:00 10.9 0 Calma 9 Norte 0 -- -- 89
2018-03-29 00:00:00 11.4 2 Norte 5 Nordeste 0 -- -- 88
2018-03-28 23:00:00 11.8 2 Norte 6 Norte 0 -- -- 86
2018-03-28 22:00:00 12.4 0 Calma 5 Oeste 0 -- -- 83
2018-03-28 21:00:00 13.5 0 Calma 6 Nordeste 0 -- -- 81
2018-03-28 20:00:00 14.6 0 Calma 6 Nordeste 0 -- -- 72
2018-03-28 19:00:00 16.4 3 Este 11 Nordeste 0 -- -- 58
2018-03-28 18:00:00 17 4 Este 12 Sudeste 0 -- -- 54
2018-03-28 17:00:00 17.9 4 Sudeste 15 Sur 0 -- -- 53
2018-03-28 16:00:00 18 4 Sudeste 17 Sur 0 -- -- 53
2018-03-28 15:00:00 18.8 5 Sudeste 17 Sudoeste 0 -- -- 52
2018-03-28 14:00:00 18 4 Sudeste 16 Este 0 -- -- 50
2018-03-28 13:00:00 19 4 Este 16 Nordeste 0 -- -- 48
2018-03-28 12:00:00 19.1 4 Sudeste 12 Sur 0 -- -- 48
2018-03-28 11:00:00 17.8 2 Este 10 Este 0 -- -- 48
2018-03-28 10:00:00 17.8 0 Calma 7 Norte 0 -- -- 50
2018-03-28 09:00:00 11.8 5 Norte 9 Norte 0 -- -- 77
2018-03-28 08:00:00 10.5 6 Norte 13 Norte 0 -- -- 80
2018-03-28 07:00:00 10.3 6 Norte 12 Norte 0 -- -- 82
2018-03-28 06:00:00 10.1 3 Norte 8 Norte 0 -- -- 85
2018-03-28 05:00:00 10.2 0 Calma 13 Sudoeste 0 -- -- 81
2018-03-28 04:00:00 11.9 0 Calma 18 Norte 0 -- -- 68
2018-03-28 03:00:00 12.2 7 Norte 15 Norte 0 -- -- 71
2018-03-28 02:00:00 11.5 0 Calma 14 Norte 0 -- -- 81
2018-03-28 01:00:00 11.1 3 Norte 9 Norte 0 -- -- 89
2018-03-28 00:00:00 11.4 4 Norte 13 Norte 0 -- -- 88
2018-03-27 23:00:00 11.3 3 Norte 8 Noroeste 0 -- -- 88
2018-03-27 22:00:00 11.5 0 Calma 5 Sudoeste 0 -- -- 87
2018-03-27 21:00:00 12.7 0 Calma 8 Sur 0 -- -- 84
2018-03-27 20:00:00 13.2 2 Sur 17 Sur 0 -- -- 80
2018-03-27 19:00:00 13.6 5 Sudoeste 20 Sudoeste 0 -- -- 74
2018-03-27 18:00:00 13.2 8 Sudoeste 22 Sudoeste 0 -- -- 60
2018-03-27 17:00:00 14.7 9 Sudoeste 24 Sur 0 -- -- 49
2018-03-27 16:00:00 14.4 12 Sudoeste 30 Sudoeste 0 -- -- 48
2018-03-27 15:00:00 16.3 13 Sudoeste 26 Sudoeste 0 -- -- 44
2018-03-27 14:00:00 14.8 7 Sur 22 Este 0 -- -- 47
2018-03-27 13:00:00 14.1 3 Este 13 Sudeste 0 -- -- 48
2018-03-27 12:00:00 14.9 4 Este 15 Sudeste 0 -- -- 49
2018-03-27 11:00:00 14.9 3 Sudeste 10 Sudeste 0 -- -- 58
2018-03-27 10:00:00 13.4 2 Norte 13 Norte 0 -- -- 60
2018-03-27 09:00:00 9.6 6 Norte 14 Norte 0 -- -- 80
2018-03-27 08:00:00 8.2 6 Norte 13 Norte 0 -- -- 90
2018-03-27 07:00:00 8.4 5 Noroeste 10 Norte 0 -- -- 90
2018-03-27 06:00:00 8.7 3 Norte 9 Sudoeste 0 -- -- 89
2018-03-27 05:00:00 10.2 5 Sudoeste 10 Sudoeste 0 -- -- 89
2018-03-27 04:00:00 8.7 4 Norte 9 Norte 0 -- -- 90
2018-03-27 03:00:00 9.1 5 Norte 12 Norte 0 -- -- 88
2018-03-27 02:00:00 8.6 4 Noroeste 10 Norte 0 -- -- 88
2018-03-27 01:00:00 8.6 5 Norte 9 Norte 0 -- -- 85
2018-03-27 00:00:00 9 6 Norte 10 Norte 0 -- -- 81
2018-03-26 23:00:00 9.7 2 Noroeste 10 Norte 0 -- -- 77
2018-03-26 22:00:00 11.1 0 Calma 9 Nordeste 0 -- -- 73
2018-03-26 21:00:00 11.2 4 Norte 9 Norte 0 -- -- 73
2018-03-26 20:00:00 11.7 0 Calma 7 Sudeste 0 -- -- 71
2018-03-26 19:00:00 13.8 0 Calma 8 Nordeste 0 -- -- 58
2018-03-26 18:00:00 16 0 Calma 9 Sudoeste 0 -- -- 49
2018-03-26 17:00:00 16.8 4 Sur 11 Sur 0 -- -- 49
2018-03-26 16:00:00 15.1 3 Sur 16 Sur 0 -- -- 57
2018-03-26 15:00:00 15.7 3 Este 18 Sudoeste 0 -- -- 49
2018-03-26 14:00:00 18.2 7 Sur 14 Sur 0 -- -- 39
2018-03-26 13:00:00 17.4 5 Nordeste 14 Nordeste 0 -- -- 36
2018-03-26 12:00:00 16.9 4 Este 14 Nordeste 0 -- -- 43
2018-03-26 11:00:00 15.1 0 Calma 11 Norte 0 -- -- 46
2018-03-26 10:00:00 13.5 4 Noroeste 11 Norte 0 -- -- 52
2018-03-26 09:00:00 8.4 3 Nordeste 12 Norte 0 -- -- 80
2018-03-26 08:00:00 7.3 6 Norte 15 Norte 0 -- -- 81
2018-03-26 07:00:00 6.5 4 Noroeste 11 Norte 0 -- -- 85
2018-03-26 06:00:00 6.2 4 Norte 10 Norte 0 -- -- 85
2018-03-26 05:00:00 7.6 5 Norte 13 Norte 0 -- -- 77
2018-03-26 04:00:00 7.1 0 Calma 14 Noroeste 0 -- -- 80
2018-03-26 03:00:00 7.1 0 Calma 10 Oeste 0 -- -- 80
2018-03-26 02:00:00 8.5 0 Calma 13 Noroeste 0 -- -- 71
2018-03-26 01:00:00 11 6 Sudoeste 19 Sudoeste 0 -- -- 54
2018-03-26 00:00:00 9 0 Calma 11 Oeste 0 -- -- 76
2018-03-25 23:00:00 7.5 0 Calma 6 Noroeste 0 -- -- 83
2018-03-25 22:00:00 8.1 2 Norte 6 Norte 0 -- -- 85
2018-03-25 21:00:00 9.2 0 Calma 7 Sudoeste 0 -- -- 80
2018-03-25 20:00:00 11 3 Sudoeste 6 Sudoeste 0 -- -- 66
2018-03-25 19:00:00 12 2 Norte 12 Nordeste 0 -- -- 55
2018-03-25 18:00:00 12.8 0 Calma 14 Este 0 -- -- 59
2018-03-25 17:00:00 12.7 2 Sudoeste 7 Sur 0 -- -- 59
2018-03-25 16:00:00 12.6 0 Calma 11 Nordeste 0 -- -- 57
2018-03-25 15:00:00 13.1 4 Norte 20 Nordeste 0 -- -- 53
2018-03-25 14:00:00 12.7 9 Norte 28 Norte 0 -- -- 50
2018-03-25 13:00:00 11.5 13 Norte 30 Norte 0 -- -- 54
2018-03-25 12:00:00 11.4 7 Nordeste 22 Este 0 -- -- 53
2018-03-25 11:00:00 11.6 4 Norte 13 Sudoeste 0 -- -- 58
2018-03-25 10:00:00 11 6 Noroeste 15 Norte 0 -- -- 54
2018-03-25 09:00:00 10.6 8 Norte 22 Norte 0 -- -- 56
2018-03-25 08:00:00 10 9 Norte 26 Norte 0 -- -- 57
2018-03-25 07:00:00 10.2 12 Norte 27 Norte 0 -- -- 54
2018-03-25 06:00:00 10.9 15 Norte 30 Norte 0 -- -- 49
2018-03-25 05:00:00 10.5 10 Norte 23 Norte 0 -- -- 54
2018-03-25 03:00:00 9.9 14 Norte 39 Norte 0 -- -- 58
2018-03-25 01:00:00 9.8 16 Norte 46 Norte 0 -- -- 58
2018-03-25 00:00:00 9.8 19 Norte 57 Norte 0 -- -- 57
2018-03-24 23:00:00 9.7 17 Norte 50 Norte 0 -- -- 63
2018-03-24 22:00:00 9.1 19 Norte 62 Norte 0.4 -- -- 71
2018-03-24 21:00:00 8.8 24 Norte 67 Norte 1.2 -- -- 75
2018-03-24 20:00:00 8.4 26 Norte 73 Norte 2.2 -- -- 77
2018-03-24 19:00:00 8.3 22 Norte 46 Norte 3.9 -- -- 80
2018-03-24 18:00:00 8.4 14 Norte 42 Norte 3.2 -- -- 78
2018-03-24 17:00:00 8.2 14 Noroeste 49 Norte 2.1 -- -- 80
2018-03-24 16:00:00 8.3 21 Norte 58 Noroeste 0.7 -- -- 76
2018-03-24 15:00:00 8 20 Norte 58 Norte 1 -- -- 80
2018-03-24 14:00:00 8.1 26 Norte 61 Norte 0.1 -- -- 74
2018-03-24 13:00:00 8.3 23 Norte 53 Norte 0 -- -- 71
2018-03-24 12:00:00 8.5 22 Norte 51 Norte 0.7 -- -- 75
2018-03-24 11:00:00 8.4 21 Norte 45 Norte 4.4 -- -- 81
2018-03-24 10:00:00 9.1 13 Norte 36 Norte 2.9 -- -- 83
2018-03-24 09:00:00 10.1 10 Norte 21 Norte 2.2 -- -- 91
2018-03-24 08:00:00 10.9 4 Norte 9 Nordeste 1.9 -- -- 91
2018-03-24 07:00:00 10 5 Norte 9 Norte 0.4 -- -- 91
2018-03-24 06:00:00 9.9 3 Noroeste 11 Norte 0.3 -- -- 91
2018-03-24 05:00:00 9.6 5 Norte 10 Norte 0.2 -- -- 90
2018-03-24 04:00:00 9.7 5 Norte 10 Sudoeste 0.7 -- -- 90
2018-03-24 03:00:00 10 4 Norte 7 Nordeste 0 -- -- 82
2018-03-24 02:00:00 9.5 3 Norte 9 Norte 0 -- -- 74
2018-03-24 01:00:00 8.8 5 Norte 9 Norte 0 -- -- 72
2018-03-24 00:00:00 7.6 5 Norte 10 Norte 0 -- -- 74
2018-03-23 23:00:00 7.8 5 Norte 10 Norte 0 -- -- 77
2018-03-23 22:00:00 8.1 4 Norte 12 Norte 0 -- -- 81
2018-03-23 21:00:00 8.5 5 Norte 12 Norte 0 -- -- 78
2018-03-23 20:00:00 8.8 3 Noroeste 7 Norte 0 -- -- 76
2018-03-23 19:00:00 10.7 0 Calma 8 Sur 0 -- -- 65
2018-03-23 18:00:00 13.9 3 Sur 10 Sur 0 -- -- 49
2018-03-23 17:00:00 15.2 5 Sur 13 Sudeste 0 -- -- 44
2018-03-23 16:00:00 15.3 2 Este 16 Nordeste 0 -- -- 39
2018-03-23 15:00:00 14.9 0 Calma 21 Sudeste 0 -- -- 43
2018-03-23 14:00:00 15.7 3 Este 17 Nordeste 0 -- -- 44
2018-03-23 13:00:00 16.4 3 Este 16 Nordeste 0 -- -- 40
2018-03-23 12:00:00 16.1 5 Sudeste 15 Sur 0 -- -- 43
2018-03-23 11:00:00 14.4 3 Este 14 Sur 0 -- -- 45
2018-03-23 10:00:00 15.1 2 Este 11 Norte 0 -- -- 51
2018-03-23 09:00:00 14 3 Este 8 Sudeste 0 -- -- 49
2018-03-23 08:00:00 8.7 2 Nordeste 15 Noroeste 0 -- -- 58
2018-03-23 07:00:00 7.3 7 Norte 14 Norte 0 -- -- 69
2018-03-23 06:00:00 6.5 0 Calma 12 Norte 0 -- -- 85
2018-03-23 05:00:00 7.4 6 Norte 15 Norte 0 -- -- 78
2018-03-23 04:00:00 7.3 7 Norte 14 Norte 0 -- -- 72
2018-03-23 03:00:00 7 4 Noroeste 13 Norte 0 -- -- 71
2018-03-23 02:00:00 7.3 3 Noroeste 12 Norte 0 -- -- 66
2018-03-23 01:00:00 7.8 5 Norte 16 Norte 0 -- -- 67
2018-03-23 00:00:00 8.3 9 Norte 15 Norte 0 -- -- 67